Time;durP1;ratioP1;P1;durP2;ratioP2;P2;SDS_P1;SDS_P2;PMS_P1;PMS_P2;Temp;Humidity;BMP_temperature;BMP_pressure;BME280_temperature;BME280_humidity;BME280_pressure;Samples;Min_cycle;Max_cycle;Signal;HPM_P1;HPM_P2
2023/04/11 00:00:46;;;;;;;3.25;2.17;;;19.00;55.50;;;;;;5089914;28;20225;-52
2023/04/11 00:03:18;;;;;;;3.97;2.67;;;19.00;55.40;;;;;;5091413;28;20218;-50
2023/04/11 00:05:49;;;;;;;4.97;2.60;;;19.00;55.40;;;;;;5087112;28;20190;-53
2023/04/11 00:08:20;;;;;;;2.58;2.22;;;19.00;55.40;;;;;;5070050;28;20651;-52
2023/04/11 00:10:50;;;;;;;3.58;2.63;;;19.00;55.40;;;;;;5090158;28;20193;-51
2023/04/11 00:13:22;;;;;;;3.35;2.22;;;19.00;55.40;;;;;;5110438;28;20217;-50
2023/04/11 00:15:54;;;;;;;4.57;2.50;;;19.00;55.40;;;;;;5095163;28;20654;-53
2023/04/11 00:18:27;;;;;;;3.55;2.45;;;19.00;55.40;;;;;;5069717;28;20261;-50
2023/04/11 00:20:57;;;;;;;2.63;2.08;;;19.00;55.50;;;;;;5079617;28;20225;-53
2023/04/11 00:23:28;;;;;;;7.20;3.80;;;19.00;55.40;;;;;;5086373;28;20236;-54
2023/04/11 00:25:59;;;;;;;6.43;2.30;;;19.00;55.40;;;;;;5100218;28;20329;-54
2023/04/11 00:28:29;;;;;;;3.63;1.63;;;19.00;55.60;;;;;;5107711;28;20197;-54
2023/04/11 00:31:00;;;;;;;2.85;2.10;;;19.10;55.70;;;;;;5079852;28;20642;-55
2023/04/11 00:33:32;;;;;;;2.92;2.30;;;19.10;55.70;;;;;;5089786;28;20218;-55
2023/04/11 00:36:03;;;;;;;2.40;1.90;;;19.10;55.50;;;;;;5090638;28;20194;-55
2023/04/11 00:38:35;;;;;;;1.90;1.55;;;19.10;55.40;;;;;;5090565;28;20235;-54
2023/04/11 00:41:05;;;;;;;8.65;2.42;;;19.10;55.20;;;;;;5093901;28;20259;-55
2023/04/11 00:43:36;;;;;;;14.27;6.68;;;19.10;55.10;;;;;;5094351;28;20574;-55
2023/04/11 00:46:07;;;;;;;16.15;6.93;;;19.20;55.10;;;;;;5090300;28;20668;-52
2023/04/11 00:48:40;;;;;;;9.43;4.47;;;19.20;55.20;;;;;;5095021;28;20194;-51
2023/04/11 00:51:11;;;;;;;8.88;4.90;;;19.20;55.80;;;;;;5104733;28;20692;-54
2023/04/11 00:53:44;;;;;;;10.38;4.32;;;19.20;55.20;;;;;;5114773;28;20224;-55
2023/04/11 00:56:15;;;;;;;12.40;4.93;;;19.20;55.30;;;;;;5114543;28;20216;-53
2023/04/11 00:58:46;;;;;;;8.75;4.20;;;19.20;55.30;;;;;;5113756;28;20193;-53
2023/04/11 01:01:18;;;;;;;10.10;4.43;;;19.20;55.30;;;;;;5114024;28;20266;-52
2023/04/11 01:03:51;;;;;;;10.65;4.30;;;19.30;55.30;;;;;;5114494;28;20224;-51
2023/04/11 01:06:22;;;;;;;10.75;4.82;;;19.30;55.30;;;;;;5105908;28;20198;-53
2023/04/11 01:08:53;;;;;;;9.10;4.05;;;19.30;55.30;;;;;;5093711;28;20217;-51
2023/04/11 01:11:24;;;;;;;11.90;4.43;;;19.30;55.20;;;;;;5094352;28;20756;-53
2023/04/11 01:13:56;;;;;;;8.70;3.97;;;19.40;55.30;;;;;;5093170;28;20217;-52
2023/04/11 01:16:26;;;;;;;7.60;3.53;;;19.40;55.20;;;;;;5094103;28;20201;-50
2023/04/11 01:18:59;;;;;;;7.82;4.47;;;19.40;55.20;;;;;;5094237;28;20202;-52
2023/04/11 01:21:30;;;;;;;8.18;3.80;;;19.40;55.20;;;;;;5093983;28;20690;-53
2023/04/11 01:24:03;;;;;;;7.18;3.55;;;19.40;55.20;;;;;;5093271;28;20781;-50
2023/04/11 01:26:34;;;;;;;8.32;3.83;;;19.40;55.20;;;;;;5093181;28;20194;-52
2023/04/11 01:29:05;;;;;;;6.38;3.25;;;19.40;55.10;;;;;;5093895;28;20595;-54
2023/04/11 01:31:36;;;;;;;7.78;3.40;;;19.50;55.20;;;;;;5092745;28;20194;-52
2023/04/11 01:34:11;;;;;;;7.00;3.80;;;19.50;55.20;;;;;;5093318;28;20202;-47
2023/04/11 01:36:42;;;;;;;5.97;3.35;;;19.50;55.20;;;;;;5104976;28;20279;-52
2023/04/11 01:39:14;;;;;;;7.70;3.92;;;19.50;55.20;;;;;;5113121;28;20197;-52
2023/04/11 01:41:47;;;;;;;7.47;3.53;;;19.60;55.30;;;;;;5112727;28;20193;-48
2023/04/11 01:44:18;;;;;;;10.57;3.47;;;19.60;55.20;;;;;;5113407;28;20333;-48
2023/04/11 01:46:49;;;;;;;6.32;3.10;;;19.60;55.30;;;;;;5094746;28;20194;-50
2023/04/11 01:49:21;;;;;;;6.88;3.25;;;19.60;55.20;;;;;;5093006;28;20554;-48
2023/04/11 01:51:51;;;;;;;5.47;3.03;;;19.70;55.30;;;;;;5092002;28;20271;-49
2023/04/11 01:54:24;;;;;;;4.57;2.92;;;19.70;55.20;;;;;;5092609;28;20202;-49
2023/04/11 01:56:55;;;;;;;6.13;3.05;;;19.70;55.20;;;;;;5093653;28;20202;-47
2023/04/11 01:59:26;;;;;;;6.25;2.88;;;19.80;55.20;;;;;;5093458;28;20281;-48
2023/04/11 02:01:56;;;;;;;6.07;3.05;;;19.80;55.20;;;;;;5093420;28;20678;-50
2023/04/11 02:04:27;;;;;;;4.70;2.95;;;19.80;55.20;;;;;;5093137;28;20247;-50
2023/04/11 02:06:58;;;;;;;5.25;2.80;;;19.80;55.10;;;;;;5093073;28;20240;-52
2023/04/11 02:09:30;;;;;;;6.30;3.17;;;19.90;55.20;;;;;;5093206;28;20194;-50
2023/04/11 02:12:01;;;;;;;5.95;2.92;;;19.90;55.20;;;;;;5093307;28;20197;-50
2023/04/11 02:14:42;;;;;;;4.53;2.60;;;19.90;55.20;;;;;;5089921;28;20194;-47
2023/04/11 02:17:14;;;;;;;4.93;2.65;;;20.00;55.20;;;;;;5091895;28;20282;-48
2023/04/11 02:19:44;;;;;;;4.13;2.38;;;20.00;55.10;;;;;;5093085;28;20198;-50
2023/04/11 02:22:16;;;;;;;4.75;2.53;;;20.00;55.10;;;;;;5081316;28;20214;-49
2023/04/11 02:24:50;;;;;;;4.88;2.38;;;20.10;55.10;;;;;;5072960;28;20694;-51
2023/04/11 02:27:20;;;;;;;3.13;2.40;;;20.10;55.10;;;;;;5083237;28;20219;-53
2023/04/11 02:29:51;;;;;;;3.00;2.30;;;20.10;55.70;;;;;;5071915;28;20191;-50
2023/04/11 02:32:22;;;;;;;4.15;2.28;;;20.20;55.10;;;;;;5099797;28;20217;-52
2023/04/11 02:34:52;;;;;;;3.97;2.40;;;20.20;55.00;;;;;;5113002;28;20197;-51
2023/04/11 02:37:24;;;;;;;3.47;2.15;;;20.20;55.00;;;;;;5094442;28;20197;-52
2023/04/11 02:39:57;;;;;;;4.13;2.40;;;20.30;55.00;;;;;;5086680;28;20229;-52
2023/04/11 02:42:28;;;;;;;3.45;2.10;;;20.30;54.90;;;;;;5091469;28;20586;-53
2023/04/11 02:44:58;;;;;;;3.55;2.08;;;20.30;54.90;;;;;;5092075;28;20206;-52
2023/04/11 02:47:29;;;;;;;2.78;1.38;;;20.30;54.90;;;;;;5091636;28;20186;-52
2023/04/11 02:50:00;;;;;;;4.88;1.90;;;20.40;54.70;;;;;;5092406;28;20646;-50
2023/04/11 02:52:32;;;;;;;2.28;1.80;;;20.40;54.70;;;;;;5092445;28;20218;-54
2023/04/11 02:55:05;;;;;;;5.13;2.00;;;20.40;54.60;;;;;;5092589;28;20198;-50
2023/04/11 02:57:35;;;;;;;2.55;1.90;;;20.40;54.60;;;;;;5105789;28;20196;-51
2023/04/11 03:00:06;;;;;;;2.00;1.73;;;20.40;54.60;;;;;;5112140;28;20216;-54
2023/04/11 03:02:37;;;;;;;2.47;1.95;;;20.50;54.60;;;;;;5110382;28;20216;-55
2023/04/11 03:05:08;;;;;;;2.67;1.85;;;20.50;54.50;;;;;;5111253;28;20193;-51
2023/04/11 03:07:39;;;;;;;2.25;1.70;;;20.50;54.50;;;;;;5111519;28;20645;-52
2023/04/11 03:10:12;;;;;;;3.67;1.88;;;20.60;54.50;;;;;;5111081;28;20204;-50
2023/04/11 03:12:43;;;;;;;2.97;1.48;;;20.60;54.50;;;;;;5111438;28;20272;-51
2023/04/11 03:15:16;;;;;;;2.10;1.23;;;20.70;54.50;;;;;;5107010;28;20533;-54
2023/04/11 03:17:47;;;;;;;3.85;2.05;;;20.70;54.50;;;;;;5089527;28;20714;-50
2023/04/11 03:20:18;;;;;;;3.83;1.80;;;20.70;54.40;;;;;;5090540;28;20218;-50
2023/04/11 03:22:49;;;;;;;2.33;1.30;;;20.70;54.40;;;;;;5091782;28;20217;-51
2023/04/11 03:25:21;;;;;;;1.95;1.60;;;20.70;54.40;;;;;;5090599;28;20205;-52
2023/04/11 03:27:52;;;;;;;3.13;1.58;;;20.70;54.40;;;;;;5090984;28;20191;-52
2023/04/11 03:30:22;;;;;;;3.65;1.38;;;20.70;54.30;;;;;;5091353;28;20198;-53
2023/04/11 03:32:53;;;;;;;2.42;1.73;;;20.80;54.30;;;;;;5091392;28;20206;-54
2023/04/11 03:35:24;;;;;;;2.45;1.42;;;20.80;54.30;;;;;;5091601;28;20194;-49
2023/04/11 03:37:55;;;;;;;3.83;1.77;;;20.80;54.30;;;;;;5091600;28;20198;-55
2023/04/11 03:40:27;;;;;;;2.67;1.70;;;20.80;54.30;;;;;;5091347;28;20267;-52
2023/04/11 03:43:00;;;;;;;3.00;1.70;;;20.80;54.30;;;;;;5083858;28;20214;-50
2023/04/11 03:45:31;;;;;;;2.20;1.23;;;20.90;54.30;;;;;;5076449;28;20209;-52
2023/04/11 03:48:02;;;;;;;2.58;1.48;;;20.80;54.30;;;;;;5091719;28;20198;-50
2023/04/11 03:50:32;;;;;;;1.60;1.25;;;20.90;54.30;;;;;;5081734;28;20194;-54
2023/04/11 03:53:03;;;;;;;2.35;1.33;;;20.90;54.30;;;;;;5099453;28;20217;-52
2023/04/11 03:55:35;;;;;;;1.77;1.30;;;20.90;54.30;;;;;;5110997;28;20205;-49
2023/04/11 03:58:06;;;;;;;2.38;1.40;;;20.90;54.20;;;;;;5111359;28;20298;-55
2023/04/11 04:00:37;;;;;;;2.13;1.48;;;21.00;54.30;;;;;;5108225;28;20222;-52
2023/04/11 04:03:07;;;;;;;2.28;1.67;;;21.00;54.30;;;;;;5090670;28;20288;-49
2023/04/11 04:05:38;;;;;;;2.05;1.35;;;21.00;54.20;;;;;;5090187;28;20194;-54
2023/04/11 04:08:09;;;;;;;2.40;1.55;;;21.00;54.20;;;;;;5091133;28;20572;-53
2023/04/11 04:10:42;;;;;;;1.90;1.40;;;21.00;54.20;;;;;;5090683;28;20209;-52
2023/04/11 04:13:13;;;;;;;1.27;1.10;;;21.00;54.20;;;;;;5090814;28;20213;-54
2023/04/11 04:15:44;;;;;;;2.97;1.10;;;21.00;54.10;;;;;;5088034;28;20197;-51
2023/04/11 04:18:15;;;;;;;2.05;1.30;;;21.00;54.10;;;;;;5083561;28;20193;-51
2023/04/11 04:20:45;;;;;;;1.88;1.15;;;21.00;54.10;;;;;;5095071;28;20244;-51
2023/04/11 04:23:22;;;;;;;2.78;1.27;;;21.10;54.20;;;;;;5094293;28;20202;-49
2023/04/11 04:25:56;;;;;;;1.25;0.95;;;21.10;54.10;;;;;;5095600;28;20190;-53
2023/04/11 04:28:27;;;;;;;1.27;1.02;;;21.10;54.00;;;;;;5094461;28;20222;-49
2023/04/11 04:30:58;;;;;;;1.30;1.00;;;21.10;54.00;;;;;;5093906;28;20213;-51
2023/04/11 04:33:31;;;;;;;1.38;0.98;;;21.20;54.10;;;;;;5102638;28;20213;-52
2023/04/11 04:36:03;;;;;;;1.92;1.05;;;21.10;54.00;;;;;;5114836;28;20233;-47
2023/04/11 04:38:37;;;;;;;1.52;1.00;;;21.20;54.10;;;;;;5094417;28;20202;-53
2023/04/11 04:41:16;;;;;;;1.80;1.00;;;21.20;54.00;;;;;;5093878;28;20222;-49
2023/04/11 04:43:47;;;;;;;1.52;1.10;;;21.20;53.90;;;;;;5094172;28;20263;-48
2023/04/11 04:46:18;;;;;;;2.28;1.25;;;21.20;53.90;;;;;;5093850;28;20890;-55
2023/04/11 04:48:48;;;;;;;1.10;1.00;;;21.20;54.40;;;;;;5106036;28;20190;-50
2023/04/11 04:51:19;;;;;;;1.60;1.10;;;21.20;53.80;;;;;;5115129;28;20201;-53
2023/04/11 04:53:50;;;;;;;1.95;1.23;;;21.20;53.80;;;;;;5113701;27;20216;-49
2023/04/11 04:56:22;;;;;;;1.15;0.82;;;21.20;53.80;;;;;;5114509;28;20201;-50
2023/04/11 04:58:53;;;;;;;1.52;1.00;;;21.20;53.80;;;;;;5107034;28;20669;-49
2023/04/11 05:01:25;;;;;;;1.33;0.90;;;21.20;53.80;;;;;;5073765;28;20222;-50
2023/04/11 05:03:59;;;;;;;1.10;1.00;;;21.30;53.80;;;;;;5086611;28;20214;-47
2023/04/11 05:06:31;;;;;;;1.50;0.93;;;21.30;53.80;;;;;;5094254;28;20658;-48
2023/04/11 05:09:04;;;;;;;2.45;1.00;;;21.30;53.90;;;;;;5093689;28;20187;-50
2023/04/11 05:11:37;;;;;;;0.82;0.80;;;21.30;53.90;;;;;;5094227;28;20194;-50
2023/04/11 05:14:08;;;;;;;1.23;1.00;;;21.30;53.80;;;;;;5094089;28;20247;-51
2023/04/11 05:16:40;;;;;;;1.48;0.85;;;21.40;53.90;;;;;;5094154;28;20244;-48
2023/04/11 05:19:11;;;;;;;2.25;0.90;;;21.40;53.90;;;;;;5093480;28;20186;-48
2023/04/11 05:21:41;;;;;;;0.98;0.90;;;21.40;53.80;;;;;;5094325;28;20226;-54
2023/04/11 05:24:12;;;;;;;1.20;0.98;;;21.40;53.80;;;;;;5106557;28;20695;-49
2023/04/11 05:26:44;;;;;;;0.98;0.82;;;21.40;53.80;;;;;;5112870;28;20653;-52
2023/04/11 05:29:15;;;;;;;0.95;0.85;;;21.40;53.80;;;;;;5113533;28;20571;-51
2023/04/11 05:31:45;;;;;;;1.45;0.90;;;21.40;53.70;;;;;;5113884;28;20201;-49
2023/04/11 05:34:16;;;;;;;1.15;0.70;;;21.40;53.80;;;;;;5113348;28;20601;-48
2023/04/11 05:36:47;;;;;;;1.00;0.90;;;21.40;53.80;;;;;;5113178;28;20617;-48
2023/04/11 05:39:17;;;;;;;2.00;0.70;;;21.40;53.70;;;;;;5093398;28;20197;-49
2023/04/11 05:41:50;;;;;;;1.30;0.82;;;21.40;53.70;;;;;;5093188;28;20276;-54
2023/04/11 05:44:20;;;;;;;1.98;0.90;;;21.40;53.70;;;;;;5106740;28;20255;-49
2023/04/11 05:46:51;;;;;;;1.48;0.90;;;21.50;53.70;;;;;;5081528;28;20199;-50
2023/04/11 05:49:21;;;;;;;1.33;0.90;;;21.40;53.60;;;;;;5085798;28;20250;-49
2023/04/11 05:51:52;;;;;;;1.65;0.80;;;21.40;53.60;;;;;;5093001;28;20275;-51
2023/04/11 05:54:34;;;;;;;1.45;0.90;;;21.40;53.60;;;;;;5093302;28;20190;-48
2023/04/11 05:57:06;;;;;;;0.80;0.80;;;21.40;53.60;;;;;;5092943;28;20194;-52
2023/04/11 05:59:37;;;;;;;0.82;0.60;;;21.40;53.50;;;;;;5093253;28;20194;-51
2023/04/11 06:02:07;;;;;;;1.25;1.00;;;21.40;53.50;;;;;;5092220;28;20230;-50
2023/04/11 06:04:38;;;;;;;0.98;0.70;;;21.40;53.50;;;;;;5092178;28;20642;-50
2023/04/11 06:07:09;;;;;;;1.08;0.90;;;21.40;53.50;;;;;;5093167;28;20190;-50
2023/04/11 06:09:41;;;;;;;0.80;0.80;;;21.40;53.50;;;;;;5087261;28;20194;-48
2023/04/11 06:12:13;;;;;;;1.20;0.80;;;21.40;53.50;;;;;;5092384;28;20304;-49
2023/04/11 06:14:44;;;;;;;1.65;1.00;;;21.40;53.50;;;;;;5092722;28;20240;-53
2023/04/11 06:17:14;;;;;;;0.90;0.73;;;21.40;53.40;;;;;;5092182;28;20202;-47
2023/04/11 06:19:45;;;;;;;0.93;0.75;;;21.40;53.40;;;;;;5092734;28;20190;-48
2023/04/11 06:22:15;;;;;;;1.10;0.82;;;21.40;53.40;;;;;;5092972;28;20231;-47
2023/04/11 06:24:46;;;;;;;0.95;0.85;;;21.40;53.40;;;;;;5091718;28;20198;-49
2023/04/11 06:27:18;;;;;;;1.25;0.90;;;21.40;53.40;;;;;;5091642;28;20256;-49
2023/04/11 06:29:49;;;;;;;2.03;0.95;;;21.40;53.40;;;;;;5106819;28;20193;-54
2023/04/11 06:32:19;;;;;;;0.98;0.70;;;21.40;53.40;;;;;;5112295;28;20282;-52
2023/04/11 06:34:50;;;;;;;0.85;0.80;;;21.40;53.40;;;;;;5112166;28;20218;-46
2023/04/11 06:37:21;;;;;;;1.45;0.93;;;21.40;53.40;;;;;;5108635;28;20255;-50
2023/04/11 06:39:52;;;;;;;0.90;0.60;;;21.40;53.40;;;;;;5087973;28;20187;-48
2023/04/11 06:42:24;;;;;;;1.10;0.85;;;21.40;53.30;;;;;;5092264;28;20230;-48
2023/04/11 06:44:55;;;;;;;0.90;0.70;;;21.30;53.20;;;;;;5092648;28;20259;-47
2023/04/11 06:47:25;;;;;;;1.48;0.68;;;21.30;53.20;;;;;;5071727;28;20760;-47
2023/04/11 06:49:56;;;;;;;1.00;0.77;;;21.30;53.20;;;;;;5091706;28;20199;-47
2023/04/11 06:52:27;;;;;;;0.98;0.70;;;21.30;53.20;;;;;;5092289;28;20329;-49
2023/04/11 06:54:57;;;;;;;1.10;0.80;;;21.30;53.20;;;;;;5091643;28;20715;-49
2023/04/11 06:57:30;;;;;;;1.90;0.80;;;21.20;53.10;;;;;;5092467;28;20191;-46
2023/04/11 07:00:00;;;;;;;1.92;0.95;;;21.20;53.20;;;;;;5091719;28;20715;-51
2023/04/11 07:02:31;;;;;;;2.25;1.00;;;21.30;53.20;;;;;;5090845;28;20226;-52
2023/04/11 07:05:01;;;;;;;1.75;1.20;;;21.20;53.20;;;;;;5090965;28;20244;-49
2023/04/11 07:07:32;;;;;;;1.02;0.93;;;21.20;53.20;;;;;;5091252;28;20198;-50
2023/04/11 07:10:02;;;;;;;1.55;1.27;;;21.20;53.20;;;;;;5090969;28;20286;-51
2023/04/11 07:12:35;;;;;;;5.88;1.30;;;21.20;53.20;;;;;;5090552;28;20218;-47
2023/04/11 07:15:06;;;;;;;3.58;1.60;;;21.20;53.20;;;;;;5091463;28;20194;-51
2023/04/11 07:17:36;;;;;;;3.40;1.63;;;21.20;53.20;;;;;;5091263;28;20194;-51
2023/04/11 07:20:10;;;;;;;3.25;1.40;;;21.20;53.10;;;;;;5091292;28;20210;-50
2023/04/11 07:22:43;;;;;;;2.33;1.42;;;21.20;53.10;;;;;;5090572;28;20685;-46
2023/04/11 07:25:14;;;;;;;4.47;1.80;;;21.20;53.10;;;;;;5091198;28;20631;-47
2023/04/11 07:27:48;;;;;;;2.97;1.50;;;21.10;53.00;;;;;;5090767;28;20201;-49
2023/04/11 07:30:19;;;;;;;7.97;1.92;;;21.10;53.00;;;;;;5090462;28;20197;-48
2023/04/11 07:32:49;;;;;;;3.92;1.90;;;21.10;53.00;;;;;;5090354;28;20221;-47
2023/04/11 07:35:20;;;;;;;4.97;2.00;;;21.10;53.70;;;;;;5094251;28;20190;-47
2023/04/11 07:37:52;;;;;;;4.18;1.60;;;21.10;53.00;;;;;;5091341;28;20602;-46
2023/04/11 07:40:23;;;;;;;5.40;1.90;;;21.10;53.00;;;;;;5091521;28;20193;-47
2023/04/11 07:42:55;;;;;;;4.07;1.88;;;21.10;53.10;;;;;;5091548;28;20230;-49
2023/04/11 07:45:26;;;;;;;3.33;1.52;;;21.00;53.00;;;;;;5091631;28;20213;-49
2023/04/11 07:47:56;;;;;;;4.82;2.30;;;21.00;53.00;;;;;;5091566;28;20649;-47
2023/04/11 07:50:27;;;;;;;6.10;2.25;;;21.00;53.00;;;;;;5091108;28;20193;-51
2023/04/11 07:52:58;;;;;;;5.68;2.40;;;21.00;53.00;;;;;;5091426;28;20214;-47
2023/04/11 07:55:28;;;;;;;3.92;1.80;;;21.00;53.00;;;;;;5090479;28;20701;-48
2023/04/11 07:58:01;;;;;;;5.95;2.03;;;21.00;53.00;;;;;;5090954;28;20658;-47
2023/04/11 08:00:32;;;;;;;6.60;2.38;;;21.00;53.00;;;;;;5091095;28;20208;-47
2023/04/11 08:03:06;;;;;;;7.32;3.08;;;20.90;53.00;;;;;;5091466;28;20261;-47
2023/04/11 08:05:38;;;;;;;6.22;2.20;;;20.90;52.90;;;;;;5091549;28;20198;-48
2023/04/11 08:08:09;;;;;;;6.03;3.17;;;20.90;53.00;;;;;;5090958;28;20198;-47
2023/04/11 08:10:39;;;;;;;3.97;1.92;;;20.90;53.00;;;;;;5091081;28;20556;-47
2023/04/11 08:13:12;;;;;;;6.20;2.30;;;20.90;52.90;;;;;;5087253;28;20235;-50
2023/04/11 08:15:43;;;;;;;5.55;2.10;;;20.90;52.90;;;;;;5090694;28;20202;-48
2023/04/11 08:18:15;;;;;;;6.28;2.33;;;20.90;53.00;;;;;;5091370;28;20198;-48
2023/04/11 08:20:45;;;;;;;2.67;1.98;;;20.80;52.90;;;;;;5091131;28;20198;-47
2023/04/11 08:23:18;;;;;;;4.75;1.95;;;20.80;53.00;;;;;;5090462;28;20225;-46
2023/04/11 08:25:49;;;;;;;3.22;1.90;;;20.80;52.90;;;;;;5090363;28;20198;-47
2023/04/11 08:28:21;;;;;;;3.85;1.83;;;20.80;53.00;;;;;;5091098;28;20194;-48
2023/04/11 08:30:54;;;;;;;5.22;2.03;;;20.80;52.90;;;;;;5090800;28;20852;-47
2023/04/11 08:33:26;;;;;;;4.68;2.13;;;20.80;53.00;;;;;;5091017;28;20682;-48
2023/04/11 08:35:57;;;;;;;3.80;1.83;;;20.70;52.90;;;;;;5090529;28;20197;-48
2023/04/11 08:38:27;;;;;;;4.70;1.90;;;20.80;53.00;;;;;;5089062;28;20190;-48
2023/04/11 08:40:58;;;;;;;5.10;1.92;;;20.70;52.90;;;;;;5090631;28;20197;-47
2023/04/11 08:43:30;;;;;;;5.95;1.95;;;20.70;52.90;;;;;;5090504;28;20230;-47
2023/04/11 08:46:04;;;;;;;3.08;1.65;;;20.70;52.90;;;;;;5090521;28;20666;-49
2023/04/11 08:48:35;;;;;;;4.45;2.20;;;20.70;52.90;;;;;;5090964;28;20225;-49
2023/04/11 08:51:06;;;;;;;3.30;1.90;;;20.70;52.90;;;;;;5090990;28;20650;-48
2023/04/11 08:53:39;;;;;;;2.58;1.60;;;20.70;52.90;;;;;;5090518;28;20225;-46
2023/04/11 08:56:17;;;;;;;3.38;1.95;;;20.60;52.80;;;;;;5090355;28;20662;-48
2023/04/11 08:58:50;;;;;;;3.38;1.45;;;20.60;52.80;;;;;;5090787;28;20245;-47
2023/04/11 09:01:30;;;;;;;4.00;1.75;;;20.60;52.80;;;;;;5094456;28;20219;-46
2023/04/11 09:04:03;;;;;;;4.60;1.95;;;20.50;52.80;;;;;;5094556;28;20222;-47
2023/04/11 09:06:38;;;;;;;4.10;1.63;;;20.50;52.80;;;;;;5094514;28;20197;-47
2023/04/11 09:09:09;;;;;;;3.40;1.88;;;20.50;52.80;;;;;;5094699;28;20201;-47
2023/04/11 09:11:56;;;;;;;2.88;1.67;;;20.50;52.80;;;;;;5094247;28;20207;-53
2023/04/11 09:14:29;;;;;;;3.47;1.58;;;20.50;52.90;;;;;;5094533;28;20673;-53
2023/04/11 09:17:01;;;;;;;4.50;1.70;;;20.50;52.80;;;;;;5094143;28;20201;-54
2023/04/11 09:19:33;;;;;;;3.47;1.70;;;20.50;52.90;;;;;;5093622;28;20194;-53
2023/04/11 09:22:05;;;;;;;3.83;2.42;;;20.50;52.90;;;;;;5093783;28;20233;-49
2023/04/11 09:24:36;;;;;;;4.88;1.90;;;20.50;52.90;;;;;;5094145;28;20230;-50
2023/04/11 09:27:12;;;;;;;3.35;1.83;;;20.50;52.90;;;;;;5094510;28;20194;-48
2023/04/11 09:29:46;;;;;;;3.97;1.88;;;20.40;52.80;;;;;;5094224;28;20193;-51
2023/04/11 09:32:34;;;;;;;3.47;1.80;;;20.40;52.80;;;;;;5093973;28;20249;-49
2023/04/11 09:35:23;;;;;;;3.35;1.60;;;20.40;52.80;;;;;;5093263;28;20198;-50
2023/04/11 09:37:56;;;;;;;2.90;1.70;;;20.40;52.90;;;;;;5093859;28;20273;-51
2023/04/11 09:40:27;;;;;;;3.45;1.90;;;20.40;52.80;;;;;;5093826;28;20194;-52
2023/04/11 09:43:02;;;;;;;3.47;1.60;;;20.30;52.80;;;;;;5093956;28;20630;-53
2023/04/11 09:45:34;;;;;;;4.40;2.03;;;20.30;52.80;;;;;;5087555;28;20213;-49
2023/04/11 09:48:05;;;;;;;2.88;1.58;;;20.30;53.00;;;;;;5073989;28;20205;-51
2023/04/11 09:50:37;;;;;;;2.97;1.42;;;20.30;52.40;;;;;;5073567;28;20203;-47
2023/04/11 09:53:09;;;;;;;1.88;1.20;;;20.20;51.30;;;;;;5073361;28;20250;-51
2023/04/11 09:55:41;;;;;;;1.30;1.20;;;20.10;51.10;;;;;;5078240;28;20190;-53
2023/04/11 09:58:14;;;;;;;10.93;3.83;;;20.00;51.30;;;;;;5094043;28;20784;-52
2023/04/11 10:00:48;;;;;;;13.73;4.03;;;19.90;52.40;;;;;;5093393;28;20206;-52
2023/04/11 10:03:22;;;;;;;7.95;3.05;;;19.90;53.80;;;;;;5093163;28;20236;-52
2023/04/11 10:05:56;;;;;;;7.00;3.15;;;19.90;53.70;;;;;;5094145;28;20646;-54
2023/04/11 10:08:31;;;;;;;7.85;2.92;;;19.90;54.10;;;;;;5090329;28;21163;-53
2023/04/11 10:11:03;;;;;;;4.63;2.47;;;19.90;53.40;;;;;;5087908;28;20287;-52
2023/04/11 10:13:44;;;;;;;5.25;2.42;;;19.90;53.30;;;;;;5090238;28;20229;-55
2023/04/11 10:16:18;;;;;;;6.30;2.90;;;19.90;53.40;;;;;;5089920;28;20209;-50
2023/04/11 10:19:26;;;;;;;6.53;2.95;;;19.90;53.40;;;;;;5090452;28;20247;-54
2023/04/11 10:21:57;;;;;;;4.82;2.50;;;19.90;53.50;;;;;;5073060;28;20616;-49
2023/04/11 10:24:28;;;;;;;5.45;2.33;;;19.90;53.50;;;;;;5090617;28;20233;-52
2023/04/11 10:26:59;;;;;;;5.05;2.47;;;19.90;53.50;;;;;;5090286;28;20202;-50
2023/04/11 10:29:51;;;;;;;6.55;3.03;;;19.80;53.50;;;;;;5083934;28;20202;-53
2023/04/11 10:32:25;;;;;;;11.70;2.75;;;19.80;53.60;;;;;;5072362;28;20639;-51
2023/04/11 10:35:28;;;;;;;6.25;2.83;;;19.90;53.60;;;;;;5077791;28;20194;-54
2023/04/11 10:37:58;;;;;;;7.22;2.85;;;19.80;53.70;;;;;;5072273;28;20233;-55
2023/04/11 10:40:29;;;;;;;6.60;2.90;;;19.80;53.60;;;;;;5081090;28;20201;-50
2023/04/11 10:43:20;;;;;;;8.43;3.25;;;19.90;53.70;;;;;;5089471;28;20685;-52
2023/04/11 10:46:20;;;;;;;6.10;3.28;;;19.90;53.70;;;;;;5088902;28;20198;-49
2023/04/11 10:49:03;;;;;;;6.90;3.20;;;19.80;53.70;;;;;;5089822;28;20202;-52
2023/04/11 10:51:35;;;;;;;7.25;2.97;;;19.90;53.80;;;;;;5068854;28;20187;-51
2023/04/11 10:54:06;;;;;;;7.65;3.05;;;19.80;53.80;;;;;;5068632;28;20246;-48
2023/04/11 10:56:57;;;;;;;8.82;3.63;;;19.80;53.80;;;;;;5068045;28;20619;-50
2023/04/11 11:00:01;;;;;;;7.55;3.80;;;19.80;53.80;;;;;;5071577;28;20283;-54
2023/04/11 11:02:42;;;;;;;8.00;4.32;;;19.80;53.80;;;;;;5089027;28;20685;-50
2023/04/11 11:05:25;;;;;;;6.75;4.15;;;19.80;53.90;;;;;;5088681;28;20197;-54
2023/04/11 11:07:56;;;;;;;5.30;3.80;;;19.80;53.90;;;;;;5088410;28;20201;-53
2023/04/11 11:10:41;;;;;;;7.22;4.13;;;19.80;54.00;;;;;;5086268;28;20861;-52
2023/04/11 11:13:12;;;;;;;7.55;3.53;;;19.80;54.00;;;;;;5088834;28;20234;-54
2023/04/11 11:15:49;;;;;;;8.32;3.95;;;19.80;54.10;;;;;;5089664;28;20205;-52
2023/04/11 11:18:21;;;;;;;8.60;4.18;;;19.70;54.00;;;;;;5079398;28;20210;-53
2023/04/11 11:20:57;;;;;;;6.97;3.45;;;19.70;54.00;;;;;;5081179;28;20610;-54
2023/04/11 11:23:28;;;;;;;6.95;3.58;;;19.70;54.00;;;;;;5068549;28;20238;-54
2023/04/11 11:25:59;;;;;;;6.68;3.70;;;19.70;54.00;;;;;;5086535;28;20194;-50
2023/04/11 11:28:30;;;;;;;6.07;3.70;;;19.70;54.00;;;;;;5088886;28;20237;-53
2023/04/11 11:31:02;;;;;;;6.65;3.45;;;19.70;54.00;;;;;;5088583;28;20533;-50
2023/04/11 11:33:33;;;;;;;5.65;3.40;;;19.70;54.00;;;;;;5088481;28;20271;-52
2023/04/11 11:36:07;;;;;;;8.15;3.67;;;19.70;54.00;;;;;;5088817;28;20212;-53
2023/04/11 11:38:38;;;;;;;5.70;3.30;;;19.70;54.00;;;;;;5089128;28;20205;-52
2023/04/11 11:41:09;;;;;;;4.88;3.47;;;19.60;53.90;;;;;;5088825;28;20202;-52
2023/04/11 11:43:40;;;;;;;5.28;3.22;;;19.60;53.90;;;;;;5088483;28;20230;-51
2023/04/11 11:46:13;;;;;;;7.45;3.92;;;19.60;53.90;;;;;;5086856;28;20414;-51
2023/04/11 11:48:47;;;;;;;7.97;3.67;;;19.60;53.90;;;;;;5088393;28;20229;-55
2023/04/11 11:51:19;;;;;;;6.03;3.28;;;19.60;53.90;;;;;;5103655;28;20192;-54
2023/04/11 11:54:07;;;;;;;5.80;3.40;;;19.60;54.50;;;;;;5108761;28;20249;-54
2023/04/11 11:56:38;;;;;;;5.07;3.15;;;19.60;53.90;;;;;;5080640;28;20195;-51
2023/04/11 11:59:09;;;;;;;7.13;3.13;;;19.60;53.80;;;;;;5068661;28;20198;-51
2023/04/11 12:01:43;;;;;;;5.95;3.03;;;19.60;53.80;;;;;;5084963;28;20201;-50
2023/04/11 12:04:14;;;;;;;5.22;3.28;;;19.60;53.80;;;;;;5085477;28;20218;-52
2023/04/11 12:06:46;;;;;;;6.40;2.95;;;19.50;53.80;;;;;;5106380;28;20189;-52
2023/04/11 12:09:17;;;;;;;5.25;3.30;;;19.50;53.80;;;;;;5107685;28;20933;-53
2023/04/11 12:11:48;;;;;;;6.68;2.90;;;19.50;54.30;;;;;;5104862;28;20716;-47
2023/04/11 12:14:25;;;;;;;4.47;2.88;;;19.50;53.80;;;;;;5069724;28;20632;-48
2023/04/11 12:16:57;;;;;;;4.47;2.70;;;19.50;53.80;;;;;;5086183;28;20197;-48
2023/04/11 12:19:28;;;;;;;4.03;2.78;;;19.50;53.80;;;;;;5068849;28;20285;-52
2023/04/11 12:22:01;;;;;;;5.30;2.97;;;19.40;53.70;;;;;;5086460;28;20198;-53
2023/04/11 12:24:31;;;;;;;5.05;3.58;;;19.40;53.80;;;;;;5082297;28;20226;-52
2023/04/11 12:27:03;;;;;;;5.57;2.90;;;19.40;53.80;;;;;;5105927;28;20201;-51
2023/04/11 12:29:34;;;;;;;5.35;2.75;;;19.40;53.70;;;;;;5087551;28;20198;-54
2023/04/11 12:32:05;;;;;;;4.25;2.53;;;19.40;53.70;;;;;;5106405;28;20638;-52
2023/04/11 12:34:36;;;;;;;5.72;3.00;;;19.40;53.70;;;;;;5108329;28;20554;-50
2023/04/11 12:37:08;;;;;;;4.13;2.47;;;19.40;53.70;;;;;;5082700;27;20195;-53
2023/04/11 12:39:39;;;;;;;5.43;2.97;;;19.40;53.70;;;;;;5074348;28;20208;-53
2023/04/11 12:42:09;;;;;;;4.00;2.90;;;19.40;53.70;;;;;;5093002;28;20222;-51
2023/04/11 12:44:40;;;;;;;5.55;2.50;;;19.40;53.70;;;;;;5094700;28;20236;-50
2023/04/11 12:47:11;;;;;;;4.43;2.53;;;19.40;53.70;;;;;;5090019;28;20599;-55
2023/04/11 12:49:41;;;;;;;7.60;3.28;;;19.30;53.70;;;;;;5074673;28;20559;-49
2023/04/11 12:52:14;;;;;;;3.88;2.40;;;19.30;53.70;;;;;;5093934;28;20210;-54
2023/04/11 12:54:45;;;;;;;3.55;2.20;;;19.30;53.70;;;;;;5094238;28;20255;-53
2023/04/11 12:57:15;;;;;;;4.88;2.85;;;19.30;53.70;;;;;;5089926;28;20186;-53
2023/04/11 12:59:46;;;;;;;4.13;2.53;;;19.30;53.70;;;;;;5085113;28;20241;-50
2023/04/11 13:02:17;;;;;;;3.38;2.45;;;19.30;53.70;;;;;;5084451;28;20207;-52
2023/04/11 13:04:47;;;;;;;3.50;2.40;;;19.20;53.70;;;;;;5083244;28;20250;-50
2023/04/11 13:07:20;;;;;;;4.10;2.78;;;19.20;53.60;;;;;;5084263;28;20221;-50
2023/04/11 13:09:51;;;;;;;4.43;2.47;;;19.20;53.60;;;;;;5082617;28;20197;-54
2023/04/11 13:12:21;;;;;;;4.18;2.67;;;19.20;53.60;;;;;;5082651;28;20211;-52